Time;durP1;ratioP1;P1;durP2;ratioP2;P2;SDS_P1;SDS_P2;PMS_P1;PMS_P2;Temp;Humidity;BMP_temperature;BMP_pressure;BME280_temperature;BME280_humidity;BME280_pressure;Samples;Min_cycle;Max_cycle;Signal;HPM_P1;HPM_P2
2022/03/15 00:01:08;;;;;;;;;;;5.50;99.90;;;;;;4995646;28;19929;-75
2022/03/15 00:03:34;;;;;;;;;;;5.50;99.90;;;;;;5012614;28;22543;-75
2022/03/15 00:06:01;;;;;;;;;;;5.30;99.90;;;;;;4998144;28;19983;-75
2022/03/15 00:08:26;;;;;;;;;;;5.60;99.90;;;;;;4997514;28;20011;-75
2022/03/15 00:10:57;;;;;;;;;;;5.50;99.90;;;;;;4997279;28;20646;-75
2022/03/15 00:13:29;;;;;;;;;;;5.40;99.90;;;;;;5015316;28;20480;-75
2022/03/15 00:16:00;;;;;;;;;;;5.30;99.90;;;;;;5013885;28;20124;-75
2022/03/15 00:18:29;;;;;;;;;;;5.30;99.90;;;;;;5014242;28;20348;-75
2022/03/15 00:20:59;;;;;;;;;;;5.00;99.90;;;;;;4994579;28;20162;-75
2022/03/15 00:23:25;;;;;;;;;;;4.90;99.90;;;;;;5011818;28;19929;-75
2022/03/15 00:25:51;;;;;;;;;;;4.90;99.90;;;;;;5013924;28;19928;-75
2022/03/15 00:28:17;;;;;;;;;;;4.90;99.90;;;;;;4996793;28;19929;-75
2022/03/15 00:30:42;;;;;;;;;;;4.90;99.90;;;;;;4996266;28;19967;-75
2022/03/15 00:33:08;;;;;;;;;;;4.80;99.90;;;;;;4995584;28;19935;-74
2022/03/15 00:35:35;;;;;;;;;;;4.70;99.90;;;;;;4998920;28;19975;-75
2022/03/15 00:38:00;;;;;;;;;;;4.80;99.90;;;;;;5012938;28;19936;-75
2022/03/15 00:40:26;;;;;;;;;;;4.80;99.90;;;;;;5012448;28;19940;-75
2022/03/15 00:42:52;;;;;;;;;;;4.80;99.90;;;;;;5013570;28;19932;-75
2022/03/15 00:45:19;;;;;;;;;;;4.80;99.90;;;;;;4995151;28;19929;-75
2022/03/15 00:47:45;;;;;;;;;;;4.70;99.90;;;;;;5012961;28;20237;-74
2022/03/15 00:50:11;;;;;;;;;;;4.70;99.90;;;;;;4998371;28;19933;-75
2022/03/15 00:52:37;;;;;;;;;;;4.70;99.90;;;;;;5013047;28;19980;-75
2022/03/15 00:55:04;;;;;;;;;;;4.60;99.90;;;;;;5001043;28;20043;-75
2022/03/15 00:57:30;;;;;;;;;;;4.60;99.90;;;;;;4995165;28;19928;-75
2022/03/15 00:59:56;;;;;;;;;;;4.60;99.90;;;;;;4976419;28;19929;-75
2022/03/15 01:02:22;;;;;;;;;;;4.60;99.90;;;;;;5014829;28;19933;-75
2022/03/15 01:04:47;;;;;;;;;;;4.50;99.90;;;;;;4994201;28;20479;-74
2022/03/15 01:07:13;;;;;;;;;;;4.60;99.90;;;;;;5014554;28;20037;-75
2022/03/15 01:09:39;;;;;;;;;;;4.50;99.90;;;;;;4979946;28;19928;-75
2022/03/15 01:12:05;;;;;;;;;;;4.40;99.90;;;;;;5017965;28;19933;-75
2022/03/15 01:14:30;;;;;;;;;;;4.40;99.90;;;;;;4998835;28;19928;-75
2022/03/15 01:16:57;;;;;;;;;;;4.40;99.90;;;;;;5019447;28;19928;-75
2022/03/15 01:19:25;;;;;;;;;;;4.30;99.90;;;;;;4977814;28;19932;-74
2022/03/15 01:21:51;;;;;;;;;;;4.40;99.90;;;;;;4999370;28;19928;-74
2022/03/15 01:24:17;;;;;;;;;;;4.30;99.90;;;;;;5018861;28;20094;-75
2022/03/15 01:26:42;;;;;;;;;;;4.30;99.90;;;;;;5001720;28;19939;-75
2022/03/15 01:29:08;;;;;;;;;;;4.20;99.90;;;;;;4996250;28;19929;-75
2022/03/15 01:31:34;;;;;;;;;;;4.10;99.90;;;;;;4999381;28;19933;-75
2022/03/15 01:33:59;;;;;;;;;;;4.10;99.90;;;;;;4983798;28;19940;-75
2022/03/15 01:36:25;;;;;;;;;;;4.00;99.90;;;;;;5015202;28;20910;-75
2022/03/15 01:38:52;;;;;;;;;;;4.00;99.90;;;;;;4981256;28;19932;-74
2022/03/15 01:41:18;;;;;;;;;;;3.90;99.90;;;;;;4999547;28;19937;-75
2022/03/15 01:43:46;;;;;;;;;;;4.00;99.90;;;;;;4981728;28;20439;-75
2022/03/15 01:46:12;;;;;;;;;;;3.80;99.90;;;;;;4994965;28;19933;-75
2022/03/15 01:48:37;;;;;;;;;;;3.80;99.90;;;;;;4998480;28;19932;-75
2022/03/15 01:51:03;;;;;;;;;;;3.90;99.90;;;;;;5020533;28;19975;-75
2022/03/15 01:53:30;;;;;;;;;;;4.00;99.90;;;;;;5014939;28;19928;-75
2022/03/15 01:55:56;;;;;;;;;;;4.10;99.90;;;;;;4997368;28;19929;-75
2022/03/15 01:58:21;;;;;;;;;;;4.00;99.90;;;;;;5016188;28;19937;-75
2022/03/15 02:00:48;;;;;;;;;;;4.20;99.90;;;;;;5012906;28;19935;-75
2022/03/15 02:03:13;;;;;;;;;;;4.10;99.90;;;;;;4996189;28;19928;-75
2022/03/15 02:05:39;;;;;;;;;;;4.20;99.90;;;;;;4998937;28;20476;-75
2022/03/15 02:08:15;;;;;;;;;;;4.10;99.90;;;;;;4999327;28;20353;-75
2022/03/15 02:10:40;;;;;;;;;;;4.10;99.90;;;;;;5013962;28;20019;-75
2022/03/15 02:13:07;;;;;;;;;;;4.00;99.90;;;;;;5012892;28;19933;-75
2022/03/15 02:15:33;;;;;;;;;;;4.00;99.90;;;;;;4997254;28;19936;-75
2022/03/15 02:17:59;;;;;;;;;;;3.90;99.90;;;;;;4999343;28;19939;-75
2022/03/15 02:20:25;;;;;;;;;;;3.70;99.90;;;;;;4998080;28;19955;-75
2022/03/15 02:22:50;;;;;;;;;;;3.70;99.90;;;;;;4994253;28;19932;-74
2022/03/15 02:25:16;;;;;;;;;;;3.70;99.90;;;;;;4996981;28;19929;-75
2022/03/15 02:27:41;;;;;;;;;;;3.80;99.90;;;;;;4996099;28;20642;-75
2022/03/15 02:30:07;;;;;;;;;;;3.80;99.90;;;;;;4999958;28;20687;-75
2022/03/15 02:32:34;;;;;;;;;;;4.10;99.90;;;;;;4981026;28;19928;-75
2022/03/15 02:35:00;;;;;;;;;;;3.90;99.90;;;;;;5017271;28;20080;-75
2022/03/15 02:37:25;;;;;;;;;;;3.90;99.90;;;;;;5017113;28;20728;-75
2022/03/15 02:39:51;;;;;;;;;;;4.10;99.90;;;;;;4999209;28;20152;-74
2022/03/15 02:42:17;;;;;;;;;;;4.10;99.90;;;;;;4998807;28;19964;-75
2022/03/15 02:44:43;;;;;;;;;;;3.80;99.90;;;;;;5013231;28;19988;-75
2022/03/15 02:47:08;;;;;;;;;;;3.80;99.90;;;;;;5015109;28;19933;-74
2022/03/15 02:49:34;;;;;;;;;;;3.70;99.90;;;;;;5012665;28;20664;-74
2022/03/15 02:52:00;;;;;;;;;;;3.50;99.90;;;;;;4978898;28;20022;-74
2022/03/15 02:54:25;;;;;;;;;;;3.40;99.90;;;;;;4994816;28;20315;-74
2022/03/15 02:56:51;;;;;;;;;;;3.40;99.90;;;;;;4995900;28;20035;-75
2022/03/15 02:59:17;;;;;;;;;;;3.40;99.90;;;;;;4995821;28;19935;-75
2022/03/15 03:01:44;;;;;;;;;;;3.30;99.90;;;;;;5015475;28;19940;-75
2022/03/15 03:04:10;;;;;;;;;;;3.20;99.90;;;;;;4979706;28;20432;-75
2022/03/15 03:06:36;;;;;;;;;;;3.30;99.90;;;;;;4998783;28;20023;-75
2022/03/15 03:09:02;;;;;;;;;;;3.20;99.90;;;;;;5011016;28;19974;-75
2022/03/15 03:11:27;;;;;;;;;;;3.30;99.90;;;;;;5013092;28;20051;-75
2022/03/15 03:13:58;;;;;;;;;;;3.50;99.90;;;;;;4996539;28;19938;-75
2022/03/15 03:16:24;;;;;;;;;;;3.90;99.90;;;;;;4994833;28;19982;-75
2022/03/15 03:18:52;;;;;;;;;;;3.80;99.90;;;;;;4994866;28;20349;-75
2022/03/15 03:21:18;;;;;;;;;;;3.80;99.90;;;;;;5000265;28;20019;-74
2022/03/15 03:23:43;;;;;;;;;;;3.80;99.90;;;;;;4996154;28;19970;-75
2022/03/15 03:26:09;;;;;;;;;;;3.90;99.90;;;;;;4993808;28;19929;-75
2022/03/15 03:28:38;;;;;;;;;;;4.10;99.90;;;;;;4995544;28;20521;-75
2022/03/15 03:31:08;;;;;;;;;;;4.20;99.90;;;;;;4993959;28;19929;-75
2022/03/15 03:33:34;;;;;;;;;;;4.40;99.90;;;;;;5000278;28;19929;-74
2022/03/15 03:36:00;;;;;;;;;;;4.50;99.90;;;;;;4995271;28;19990;-75
2022/03/15 03:38:26;;;;;;;;;;;4.20;99.90;;;;;;5012469;28;19963;-75
2022/03/15 03:40:52;;;;;;;;;;;4.20;99.90;;;;;;5011851;28;21083;-75
2022/03/15 03:43:17;;;;;;;;;;;4.20;99.90;;;;;;4995621;28;20031;-75
2022/03/15 03:45:43;;;;;;;;;;;4.00;99.90;;;;;;4992457;28;20038;-75
2022/03/15 03:48:09;;;;;;;;;;;3.90;99.90;;;;;;4996292;28;20263;-75
2022/03/15 03:50:35;;;;;;;;;;;3.90;99.90;;;;;;4993455;28;19933;-75
2022/03/15 03:53:02;;;;;;;;;;;4.30;99.90;;;;;;4997242;28;20556;-74
2022/03/15 03:55:28;;;;;;;;;;;4.20;99.90;;;;;;5011562;28;19947;-75
2022/03/15 03:57:54;;;;;;;;;;;4.10;99.90;;;;;;4996551;28;20382;-75
2022/03/15 04:00:19;;;;;;;;;;;4.20;99.90;;;;;;4970544;28;19937;-75
2022/03/15 04:02:45;;;;;;;;;;;4.50;99.90;;;;;;4997506;28;19935;-75
2022/03/15 04:05:12;;;;;;;;;;;4.60;99.90;;;;;;5012123;28;20317;-75
2022/03/15 04:07:39;;;;;;;;;;;4.60;99.90;;;;;;4996297;28;20006;-75
2022/03/15 04:10:06;;;;;;;;;;;4.50;99.90;;;;;;4995472;28;20386;-75
2022/03/15 04:12:32;;;;;;;;;;;4.40;99.90;;;;;;5012070;28;20006;-75
2022/03/15 04:14:59;;;;;;;;;;;4.40;99.90;;;;;;4994153;28;19929;-74
2022/03/15 04:17:26;;;;;;;;;;;4.20;99.90;;;;;;4976659;28;19972;-75
2022/03/15 04:19:53;;;;;;;;;;;4.30;99.90;;;;;;5014718;28;19979;-75
2022/03/15 04:22:18;;;;;;;;;;;4.20;99.90;;;;;;5015130;28;19959;-75
2022/03/15 04:24:44;;;;;;;;;;;4.20;99.90;;;;;;4999334;28;20401;-75
2022/03/15 04:27:09;;;;;;;;;;;4.10;99.90;;;;;;4996767;28;19936;-75
2022/03/15 04:29:35;;;;;;;;;;;4.30;99.90;;;;;;4978251;28;19955;-75
2022/03/15 04:32:01;;;;;;;;;;;4.30;99.90;;;;;;4998271;28;20448;-75
2022/03/15 04:34:27;;;;;;;;;;;4.30;99.90;;;;;;5009488;28;19941;-75
2022/03/15 04:36:53;;;;;;;;;;;4.40;99.90;;;;;;4989634;28;20322;-75
2022/03/15 04:39:19;;;;;;;;;;;4.50;99.90;;;;;;5011917;28;20047;-75
2022/03/15 04:41:45;;;;;;;;;;;4.60;99.90;;;;;;4995391;28;20885;-75
2022/03/15 04:44:12;;;;;;;;;;;4.70;99.90;;;;;;4991702;28;20521;-75
2022/03/15 04:46:38;;;;;;;;;;;4.60;99.90;;;;;;4997169;28;20469;-75
2022/03/15 04:49:03;;;;;;;;;;;4.70;99.90;;;;;;4995091;28;19936;-75
2022/03/15 04:51:29;;;;;;;;;;;4.80;99.90;;;;;;4998229;28;19928;-75
2022/03/15 04:53:55;;;;;;;;;;;4.90;99.90;;;;;;4996765;28;20469;-75
2022/03/15 04:56:21;;;;;;;;;;;4.90;99.90;;;;;;4996963;28;19940;-75
2022/03/15 04:58:47;;;;;;;;;;;4.80;99.90;;;;;;5015936;28;19967;-75
2022/03/15 05:01:12;;;;;;;;;;;4.70;99.90;;;;;;4984277;28;20043;-75
2022/03/15 05:03:38;;;;;;;;;;;4.70;99.90;;;;;;5018081;28;19932;-75
2022/03/15 05:06:04;;;;;;;;;;;4.90;99.90;;;;;;5014508;28;19929;-75
2022/03/15 05:08:29;;;;;;;;;;;5.00;99.90;;;;;;4997537;28;20404;-75
2022/03/15 05:11:07;;;;;;;;;;;4.90;99.90;;;;;;5016172;28;19935;-75
2022/03/15 05:13:44;;;;;;;;;;;4.90;99.90;;;;;;5000611;28;19936;-75
2022/03/15 05:16:13;;;;;;;;;;;5.00;99.90;;;;;;4996385;28;20008;-75
2022/03/15 05:18:40;;;;;;;;;;;5.00;99.90;;;;;;5001427;28;20473;-75
2022/03/15 05:21:07;;;;;;;;;;;5.00;99.90;;;;;;5003524;28;20466;-75
2022/03/15 05:23:32;;;;;;;;;;;5.00;99.90;;;;;;5000119;28;19933;-75
2022/03/15 05:25:58;;;;;;;;;;;5.10;99.90;;;;;;5016587;28;19959;-75
2022/03/15 05:28:24;;;;;;;;;;;5.00;99.90;;;;;;4997943;28;19929;-75
2022/03/15 05:30:50;;;;;;;;;;;4.90;99.90;;;;;;4999636;28;19936;-75
2022/03/15 05:33:16;;;;;;;;;;;4.90;99.90;;;;;;5016795;28;19932;-75
2022/03/15 05:35:41;;;;;;;;;;;5.00;99.90;;;;;;4997618;28;19929;-75
2022/03/15 05:38:07;;;;;;;;;;;5.00;99.90;;;;;;5000374;28;19929;-75
2022/03/15 05:40:34;;;;;;;;;;;5.10;99.90;;;;;;4981465;28;20677;-75
2022/03/15 05:42:59;;;;;;;;;;;5.10;99.90;;;;;;4997976;28;19929;-75
2022/03/15 05:45:25;;;;;;;;;;;5.10;99.90;;;;;;5017085;28;19963;-75
2022/03/15 05:47:51;;;;;;;;;;;5.20;99.90;;;;;;4984757;28;19928;-75
2022/03/15 05:50:17;;;;;;;;;;;5.20;99.90;;;;;;5001873;28;20018;-75
2022/03/15 05:52:43;;;;;;;;;;;5.30;99.90;;;;;;4980194;28;19933;-75
2022/03/15 05:55:10;;;;;;;;;;;5.30;99.90;;;;;;4983593;28;19993;-75
2022/03/15 05:57:36;;;;;;;;;;;5.30;99.90;;;;;;4980688;28;19932;-75
2022/03/15 06:00:01;;;;;;;;;;;5.30;99.90;;;;;;4969068;28;19929;-75
2022/03/15 06:02:27;;;;;;;;;;;5.30;99.90;;;;;;4976779;28;20416;-74
2022/03/15 06:04:52;;;;;;;;;;;5.40;99.90;;;;;;4985186;28;19948;-75
2022/03/15 06:07:18;;;;;;;;;;;5.40;99.90;;;;;;4981880;28;19987;-75
2022/03/15 06:09:44;;;;;;;;;;;5.40;99.90;;;;;;4984771;28;20378;-75
2022/03/15 06:12:10;;;;;;;;;;;5.40;99.90;;;;;;4981740;28;20039;-75
2022/03/15 06:14:35;;;;;;;;;;;5.40;99.90;;;;;;5001068;28;19937;-75
2022/03/15 06:17:01;;;;;;;;;;;5.40;99.90;;;;;;5003517;28;19959;-75
2022/03/15 06:19:26;;;;;;;;;;;5.50;99.90;;;;;;4969546;28;20196;-75
2022/03/15 06:21:52;;;;;;;;;;;5.60;99.90;;;;;;4965815;28;19933;-75
2022/03/15 06:24:18;;;;;;;;;;;5.60;99.90;;;;;;4984607;28;20560;-75
2022/03/15 06:26:45;;;;;;;;;;;5.70;99.90;;;;;;4983861;28;19943;-75
2022/03/15 06:29:11;;;;;;;;;;;5.70;99.90;;;;;;4991294;28;19934;-75
2022/03/15 06:31:37;;;;;;;;;;;5.70;99.90;;;;;;5017142;28;20476;-75
2022/03/15 06:34:06;;;;;;;;;;;5.80;99.90;;;;;;5017496;28;20083;-75
2022/03/15 06:36:34;;;;;;;;;;;5.80;99.90;;;;;;5001097;28;20446;-75
2022/03/15 06:38:59;;;;;;;;;;;5.90;99.90;;;;;;5017149;28;19999;-74
2022/03/15 06:41:25;;;;;;;;;;;5.80;99.90;;;;;;5017732;28;20035;-75
2022/03/15 06:43:56;;;;;;;;;;;5.90;99.90;;;;;;5000302;28;20480;-75
2022/03/15 06:46:23;;;;;;;;;;;6.00;99.90;;;;;;5016578;28;20070;-75
2022/03/15 06:48:49;;;;;;;;;;;6.00;99.90;;;;;;5020400;28;19932;-75
2022/03/15 06:51:15;;;;;;;;;;;6.00;99.90;;;;;;5017714;28;20334;-75
2022/03/15 06:53:41;;;;;;;;;;;6.10;99.90;;;;;;5017300;28;20003;-75
2022/03/15 06:56:08;;;;;;;;;;;6.20;99.90;;;;;;4998325;28;20462;-76
2022/03/15 06:58:34;;;;;;;;;;;6.20;99.90;;;;;;4999365;28;19932;-74
2022/03/15 07:00:59;;;;;;;;;;;6.20;99.90;;;;;;4983671;28;19936;-75
2022/03/15 07:03:25;;;;;;;;;;;6.30;99.90;;;;;;4989763;28;19940;-75
2022/03/15 07:05:51;;;;;;;;;;;6.30;99.90;;;;;;5012739;28;19932;-75
2022/03/15 07:08:17;;;;;;;;;;;6.30;99.90;;;;;;4974104;28;20067;-75
2022/03/15 07:10:43;;;;;;;;;;;6.30;99.90;;;;;;4997597;28;19936;-75
2022/03/15 07:13:09;;;;;;;;;;;6.30;99.90;;;;;;4996889;28;19928;-75
2022/03/15 07:15:34;;;;;;;;;;;6.40;99.90;;;;;;5004287;28;19928;-75
2022/03/15 07:18:00;;;;;;;;;;;6.40;99.90;;;;;;5018278;28;20363;-75
2022/03/15 07:20:25;;;;;;;;;;;6.40;99.90;;;;;;5018265;28;20739;-75
2022/03/15 07:22:51;;;;;;;;;;;6.50;99.90;;;;;;4998127;28;20853;-75
2022/03/15 07:25:17;;;;;;;;;;;6.50;99.90;;;;;;5018007;28;19929;-75
2022/03/15 07:27:43;;;;;;;;;;;6.50;99.90;;;;;;5016963;28;20402;-75
2022/03/15 07:30:09;;;;;;;;;;;6.60;99.90;;;;;;5016678;28;20024;-74
2022/03/15 07:32:35;;;;;;;;;;;6.60;99.90;;;;;;5017484;28;20077;-74
2022/03/15 07:35:01;;;;;;;;;;;6.60;99.90;;;;;;5018348;28;20019;-75
2022/03/15 07:37:27;;;;;;;;;;;6.60;99.90;;;;;;4997114;28;20721;-75
2022/03/15 07:39:52;;;;;;;;;;;6.70;99.90;;;;;;5016759;28;20027;-75
2022/03/15 07:42:19;;;;;;;;;;;6.70;99.90;;;;;;4995159;28;20006;-75
2022/03/15 07:44:45;;;;;;;;;;;6.70;99.90;;;;;;4998418;28;19936;-75
2022/03/15 07:47:13;;;;;;;;;;;6.80;99.90;;;;;;4999572;28;19963;-75
2022/03/15 07:49:38;;;;;;;;;;;6.80;99.90;;;;;;4998257;28;19933;-75
2022/03/15 07:52:04;;;;;;;;;;;6.80;99.90;;;;;;4999431;28;19925;-75
2022/03/15 07:54:30;;;;;;;;;;;6.80;99.90;;;;;;4997293;28;20018;-75
2022/03/15 07:56:55;;;;;;;;;;;6.90;99.90;;;;;;4999503;28;20019;-75
2022/03/15 07:59:22;;;;;;;;;;;6.80;99.90;;;;;;4996101;28;20011;-75
2022/03/15 08:01:47;;;;;;;;;;;7.00;99.90;;;;;;4998080;28;19928;-75
2022/03/15 08:04:13;;;;;;;;;;;6.90;99.90;;;;;;4998361;28;19967;-75
2022/03/15 08:06:39;;;;;;;;;;;6.90;99.90;;;;;;5015786;28;19928;-75
2022/03/15 08:09:04;;;;;;;;;;;6.80;99.90;;;;;;4996685;28;19937;-75
2022/03/15 08:11:30;;;;;;;;;;;7.00;99.90;;;;;;5013160;28;19990;-75
2022/03/15 08:13:57;;;;;;;;;;;7.00;99.90;;;;;;4998420;28;20366;-75
2022/03/15 08:16:22;;;;;;;;;;;6.90;99.90;;;;;;4998328;28;20645;-75
2022/03/15 08:18:49;;;;;;;;;;;6.90;99.90;;;;;;4997288;28;19991;-75
2022/03/15 08:21:15;;;;;;;;;;;7.00;99.90;;;;;;4996727;28;19928;-75
2022/03/15 08:23:41;;;;;;;;;;;7.00;99.90;;;;;;4999984;28;19940;-75
2022/03/15 08:26:06;;;;;;;;;;;7.00;99.90;;;;;;5016489;28;19939;-75
2022/03/15 08:28:32;;;;;;;;;;;7.10;99.90;;;;;;4983300;28;21103;-75
2022/03/15 08:30:59;;;;;;;;;;;7.20;99.90;;;;;;4992645;28;20020;-75
2022/03/15 08:33:25;;;;;;;;;;;7.20;99.90;;;;;;4983864;28;20079;-75
2022/03/15 08:35:51;;;;;;;;;;;7.20;99.90;;;;;;5015302;28;19939;-76
2022/03/15 08:38:17;;;;;;;;;;;7.30;99.90;;;;;;4993802;28;20462;-75
2022/03/15 08:40:42;;;;;;;;;;;7.40;99.90;;;;;;4980362;28;19972;-74
2022/03/15 08:43:08;;;;;;;;;;;7.40;99.90;;;;;;5012884;28;20012;-75
2022/03/15 08:45:34;;;;;;;;;;;7.40;99.90;;;;;;4997783;28;21464;-75
2022/03/15 08:48:00;;;;;;;;;;;7.40;99.90;;;;;;4994120;28;19935;-75
2022/03/15 08:50:26;;;;;;;;;;;7.40;99.90;;;;;;4993642;28;20527;-75
2022/03/15 08:52:52;;;;;;;;;;;7.40;99.90;;;;;;4993785;28;20071;-75
2022/03/15 08:55:18;;;;;;;;;;;7.50;99.90;;;;;;4999403;28;19925;-75
2022/03/15 08:57:44;;;;;;;;;;;7.50;99.90;;;;;;5013129;28;19929;-75
2022/03/15 09:00:12;;;;;;;;;;;7.50;99.90;;;;;;4995065;28;19987;-75
2022/03/15 09:02:38;;;;;;;;;;;7.50;99.90;;;;;;4993095;28;20302;-75
2022/03/15 09:05:04;;;;;;;;;;;7.70;99.90;;;;;;4989316;28;19925;-75
2022/03/15 09:07:32;;;;;;;;;;;7.80;99.90;;;;;;4988891;28;20031;-75
2022/03/15 09:09:58;;;;;;;;;;;7.90;99.90;;;;;;5006383;28;19928;-75
2022/03/15 09:12:24;;;;;;;;;;;7.90;99.90;;;;;;5009019;28;19936;-75
2022/03/15 09:14:50;;;;;;;;;;;8.00;99.90;;;;;;4993987;28;20584;-75
2022/03/15 09:17:15;;;;;;;;;;;8.10;99.90;;;;;;4996090;28;19970;-75
2022/03/15 09:19:42;;;;;;;;;;;8.10;99.90;;;;;;4991064;28;19929;-75
2022/03/15 09:22:08;;;;;;;;;;;8.10;99.90;;;;;;4996631;28;20546;-75
2022/03/15 09:24:35;;;;;;;;;;;8.10;99.90;;;;;;5011730;28;20609;-73
2022/03/15 09:27:01;;;;;;;;;;;8.20;99.90;;;;;;4996448;28;19994;-75
2022/03/15 09:29:26;;;;;;;;;;;8.30;99.90;;;;;;5008996;28;20446;-75
2022/03/15 09:31:52;;;;;;;;;;;8.10;99.90;;;;;;4992117;28;20722;-75
2022/03/15 09:34:18;;;;;;;;;;;8.20;99.90;;;;;;4997318;28;19940;-75
2022/03/15 09:36:44;;;;;;;;;;;8.20;99.90;;;;;;4999266;28;20038;-75
2022/03/15 09:39:10;;;;;;;;;;;8.10;99.90;;;;;;4995744;28;19935;-75
2022/03/15 09:41:39;;;;;;;;;;;8.20;99.90;;;;;;5014673;28;20349;-75
2022/03/15 09:44:06;;;;;;;;;;;8.30;99.90;;;;;;4995558;28;20224;-75
2022/03/15 09:46:33;;;;;;;;;;;8.50;99.90;;;;;;4998439;28;19928;-75
2022/03/15 09:48:59;;;;;;;;;;;8.60;99.90;;;;;;4999010;28;19931;-75
2022/03/15 09:51:27;;;;;;;;;;;8.60;99.90;;;;;;5012620;28;19929;-75
2022/03/15 09:53:54;;;;;;;;;;;8.60;99.90;;;;;;4995624;28;19940;-75
2022/03/15 09:56:20;;;;;;;;;;;8.50;99.90;;;;;;4999750;28;19933;-75
2022/03/15 09:58:46;;;;;;;;;;;8.70;99.90;;;;;;4999830;28;19937;-76
2022/03/15 10:01:13;;;;;;;;;;;8.80;99.90;;;;;;4994912;28;19929;-76
2022/03/15 10:03:39;;;;;;;;;;;8.80;99.90;;;;;;5014050;28;19925;-75
2022/03/15 10:06:05;;;;;;;;;;;9.00;99.90;;;;;;5000669;28;19928;-75
2022/03/15 10:08:31;;;;;;;;;;;9.20;99.90;;;;;;4996949;28;19937;-75
2022/03/15 10:10:56;;;;;;;;;;;9.30;99.90;;;;;;5013624;28;19932;-75
2022/03/15 10:13:22;;;;;;;;;;;9.40;99.90;;;;;;5009309;28;19963;-75
2022/03/15 10:15:51;;;;;;;;;;;9.60;99.90;;;;;;4996456;28;20035;-75
2022/03/15 10:18:17;;;;;;;;;;;9.60;99.90;;;;;;4997188;28;19937;-75
2022/03/15 10:20:42;;;;;;;;;;;9.70;99.90;;;;;;4995606;28;19933;-75
2022/03/15 10:23:11;;;;;;;;;;;9.70;99.90;;;;;;5013962;28;19928;-75
2022/03/15 10:25:41;;;;;;;;;;;9.50;99.90;;;;;;4980154;28;19929;-75
2022/03/15 10:28:07;;;;;;;;;;;9.30;99.90;;;;;;4999834;28;19929;-75
2022/03/15 10:30:34;;;;;;;;;;;9.40;99.90;;;;;;5011136;28;20799;-75
2022/03/15 10:32:59;;;;;;;;;;;9.50;99.90;;;;;;5011937;28;19924;-75
2022/03/15 10:35:26;;;;;;;;;;;9.50;99.90;;;;;;5019282;28;20737;-75
2022/03/15 10:37:53;;;;;;;;;;;9.60;99.90;;;;;;5012636;28;20720;-75
2022/03/15 10:40:30;;;;;;;;;;;9.30;99.90;;;;;;5014535;28;20027;-75
2022/03/15 10:43:03;;;;;;;;;;;9.30;99.90;;;;;;5015481;28;20416;-75
2022/03/15 10:45:28;;;;;;;;;;;9.50;99.90;;;;;;5000111;28;19995;-75
2022/03/15 10:47:54;;;;;;;;;;;9.70;99.90;;;;;;4999289;28;20469;-75
2022/03/15 10:50:21;;;;;;;;;;;9.80;99.90;;;;;;5000329;28;19934;-75
2022/03/15 10:52:47;;;;;;;;;;;10.00;99.90;;;;;;5000360;28;20023;-75
2022/03/15 10:55:13;;;;;;;;;;;9.90;99.90;;;;;;4998201;28;19933;-75
2022/03/15 10:57:53;;;;;;;;;;;9.90;99.90;;;;;;5012893;28;19947;-75
2022/03/15 11:00:22;;;;;;;;;;;9.80;99.90;;;;;;5015302;28;20016;-74
2022/03/15 11:02:48;;;;;;;;;;;9.60;99.90;;;;;;5015708;28;20277;-74
2022/03/15 11:05:24;;;;;;;;;;;9.70;99.90;;;;;;5015324;28;19928;-74
2022/03/15 11:07:49;;;;;;;;;;;9.90;99.90;;;;;;4995969;28;19952;-74
2022/03/15 11:10:15;;;;;;;;;;;9.80;99.90;;;;;;4996985;28;20427;-74
2022/03/15 11:13:13;;;;;;;;;;;10.00;99.90;;;;;;4999416;28;19990;-74
2022/03/15 11:15:43;;;;;;;;;;;9.90;99.90;;;;;;4960351;28;20476;-74
2022/03/15 11:18:10;;;;;;;;;;;10.20;99.90;;;;;;5000678;28;20722;-74
2022/03/15 11:20:37;;;;;;;;;;;10.40;99.90;;;;;;5017664;28;20079;-74
2022/03/15 11:23:05;;;;;;;;;;;10.30;99.90;;;;;;4980927;28;20386;-74
2022/03/15 11:25:38;;;;;;;;;;;10.70;99.90;;;;;;5017857;28;19935;-74
2022/03/15 11:28:05;;;;;;;;;;;10.70;99.90;;;;;;5016884;28;19929;-74
2022/03/15 11:30:31;;;;;;;;;;;10.50;99.90;;;;;;5000453;28;19929;-74
2022/03/15 11:33:00;;;;;;;;;;;10.50;99.90;;;;;;5015958;28;20725;-74
2022/03/15 11:35:28;;;;;;;;;;;10.50;99.90;;;;;;4998404;28;19967;-74
2022/03/15 11:37:53;;;;;;;;;;;10.90;99.90;;;;;;4998104;28;20575;-74
2022/03/15 11:40:19;;;;;;;;;;;10.70;99.90;;;;;;5014140;28;19936;-74
2022/03/15 11:42:47;;;;;;;;;;;11.00;99.90;;;;;;5016229;28;20358;-74
2022/03/15 11:45:32;;;;;;;;;;;11.00;99.90;;;;;;5015204;28;19950;-74
2022/03/15 11:48:01;;;;;;;;;;;10.80;99.90;;;;;;5002394;28;19935;-74
2022/03/15 11:50:32;;;;;;;;;;;10.90;99.90;;;;;;5020311;28;19929;-74
2022/03/15 11:53:05;;;;;;;;;;;11.10;99.90;;;;;;4983303;28;20264;-74
2022/03/15 11:55:37;;;;;;;;;;;11.00;99.90;;;;;;5001212;28;19935;-74
2022/03/15 11:58:05;;;;;;;;;;;11.30;99.90;;;;;;5017757;28;20441;-74
2022/03/15 12:00:32;;;;;;;;;;;11.30;99.90;;;;;;5000787;28;20015;-74
2022/03/15 12:03:01;;;;;;;;;;;11.00;99.90;;;;;;5018411;28;19925;-74
2022/03/15 12:05:27;;;;;;;;;;;11.20;99.90;;;;;;4998565;28;19936;-74
2022/03/15 12:08:13;;;;;;;;;;;11.30;99.90;;;;;;5018754;28;19937;-74
2022/03/15 12:10:58;;;;;;;;;;;11.10;99.90;;;;;;5019716;28;20412;-74
2022/03/15 12:13:41;;;;;;;;;;;11.40;99.90;;;;;;5000493;28;20439;-74
2022/03/15 12:16:11;;;;;;;;;;;11.20;99.90;;;;;;5019211;28;19940;-74
2022/03/15 12:18:48;;;;;;;;;;;11.20;99.90;;;;;;5000279;28;19929;-74
2022/03/15 12:21:14;;;;;;;;;;;11.50;99.90;;;;;;5017831;28;19932;-76
2022/03/15 12:23:50;;;;;;;;;;;11.50;99.90;;;;;;4999713;28;20605;-74
2022/03/15 12:26:16;;;;;;;;;;;11.60;99.90;;;;;;5020189;28;19937;-74
2022/03/15 12:28:42;;;;;;;;;;;11.40;99.90;;;;;;4982768;28;19928;-75
2022/03/15 12:31:08;;;;;;;;;;;11.80;99.90;;;;;;5002150;28;19956;-75
2022/03/15 12:33:35;;;;;;;;;;;11.70;99.90;;;;;;5002238;28;20449;-75
2022/03/15 12:36:08;;;;;;;;;;;11.40;99.90;;;;;;5019013;28;19979;-74
2022/03/15 12:38:40;;;;;;;;;;;11.50;99.90;;;;;;5018796;28;19987;-74
2022/03/15 12:41:06;;;;;;;;;;;11.80;99.90;;;;;;4986289;28;20415;-75
2022/03/15 12:43:31;;;;;;;;;;;11.50;99.90;;;;;;4999738;28;19976;-74
2022/03/15 12:46:02;;;;;;;;;;;11.40;99.90;;;;;;5000627;28;20058;-75
2022/03/15 12:48:35;;;;;;;;;;;11.40;99.90;;;;;;4999640;28;19929;-74
2022/03/15 12:51:02;;;;;;;;;;;11.50;99.90;;;;;;5001359;28;20413;-74
2022/03/15 12:53:48;;;;;;;;;;;11.50;99.90;;;;;;4999692;28;20764;-74
2022/03/15 12:56:13;;;;;;;;;;;11.40;99.90;;;;;;5019649;28;19940;-74
2022/03/15 12:58:40;;;;;;;;;;;11.40;99.90;;;;;;4998171;28;20069;-74
2022/03/15 13:01:12;;;;;;;;;;;11.30;99.90;;;;;;5017931;28;19951;-74
2022/03/15 13:03:41;;;;;;;;;;;11.40;99.90;;;;;;4981467;28;19964;-74
2022/03/15 13:06:15;;;;;;;;;;;11.60;99.90;;;;;;5017646;28;19939;-74
2022/03/15 13:08:50;;;;;;;;;;;11.60;99.90;;;;;;5019130;28;20210;-74
2022/03/15 13:11:16;;;;;;;;;;;11.90;99.90;;;;;;5003005;28;19936;-74
2022/03/15 13:13:45;;;;;;;;;;;12.00;99.90;;;;;;4984801;28;19967;-74
2022/03/15 13:16:11;;;;;;;;;;;12.00;99.90;;;;;;5004287;28;19976;-74
2022/03/15 13:18:37;;;;;;;;;;;12.20;99.90;;;;;;5004937;28;20043;-74
2022/03/15 13:21:05;;;;;;;;;;;11.90;99.90;;;;;;5004287;28;20398;-74
2022/03/15 13:23:40;;;;;;;;;;;12.00;99.90;;;;;;5020646;28;19940;-74
2022/03/15 13:26:13;;;;;;;;;;;12.30;99.90;;;;;;5020988;28;19928;-74
2022/03/15 13:28:42;;;;;;;;;;;12.50;99.90;;;;;;5003250;28;20067;-74
2022/03/15 13:31:09;;;;;;;;;;;12.50;99.90;;;;;;5004068;28;19937;-74
2022/03/15 13:33:40;;;;;;;;;;;12.60;99.90;;;;;;5003504;28;19932;-74
2022/03/15 13:36:05;;;;;;;;;;;13.20;99.90;;;;;;5003440;28;19970;-74
2022/03/15 13:38:32;;;;;;;;;;;13.30;99.90;;;;;;5001138;28;19932;-74
2022/03/15 13:40:59;;;;;;;;;;;14.00;99.90;;;;;;5001530;28;20466;-74
2022/03/15 13:43:25;;;;;;;;;;;13.50;99.90;;;;;;5018446;28;19935;-74
2022/03/15 13:45:51;;;;;;;;;;;13.80;99.90;;;;;;5001392;28;20002;-75
2022/03/15 13:48:30;;;;;;;;;;;14.30;99.90;;;;;;5001190;28;20059;-74
2022/03/15 13:51:10;;;;;;;;;;;14.40;99.90;;;;;;5023192;28;19928;-74
2022/03/15 13:53:41;;;;;;;;;;;13.90;99.90;;;;;;5004777;28;20449;-74
2022/03/15 13:56:14;;;;;;;;;;;14.40;99.90;;;;;;5006332;28;20433;-74
2022/03/15 13:58:42;;;;;;;;;;;14.80;99.90;;;;;;5002697;28;19960;-75
2022/03/15 14:01:08;;;;;;;;;;;14.10;99.90;;;;;;5003238;28;19928;-75
2022/03/15 14:03:37;;;;;;;;;;;13.60;99.90;;;;;;5022597;28;19951;-75
2022/03/15 14:06:07;;;;;;;;;;;13.40;99.90;;;;;;5003659;28;19940;-74
2022/03/15 14:08:47;;;;;;;;;;;13.30;99.90;;;;;;5021507;28;20413;-74
2022/03/15 14:11:13;;;;;;;;;;;13.50;99.90;;;;;;5022393;28;20333;-74
2022/03/15 14:13:42;;;;;;;;;;;13.00;99.90;;;;;;5002673;28;19929;-74
2022/03/15 14:16:09;;;;;;;;;;;13.30;99.90;;;;;;5001163;28;20708;-74
2022/03/15 14:18:36;;;;;;;;;;;13.20;99.90;;;;;;4988120;28;19929;-75
2022/03/15 14:21:02;;;;;;;;;;;14.00;99.90;;;;;;4999570;28;19935;-74
2022/03/15 14:23:27;;;;;;;;;;;14.40;99.90;;;;;;4972850;28;20380;-74
2022/03/15 14:25:58;;;;;;;;;;;14.80;99.90;;;;;;5003131;28;19933;-74